sensor_id;sensor_type;location;lat;lon;timestamp;pressure;altitude;pressure_sealevel;temperature;humidity
47815;BME280;33579;50.058;18.130;2023-05-16T00:00:19;98666.13;;;12.36;100.00
47815;BME280;33579;50.058;18.130;2023-05-16T00:01:20;98674.03;;;12.36;100.00
47815;BME280;33579;50.058;18.130;2023-05-16T00:02:22;98669.56;;;12.36;100.00
47815;BME280;33579;50.058;18.130;2023-05-16T00:03:24;98676.34;;;12.39;100.00
47815;BME280;33579;50.058;18.130;2023-05-16T00:04:25;98663.16;;;12.39;100.00
47815;BME280;33579;50.058;18.130;2023-05-16T00:05:27;98672.06;;;12.38;100.00
47815;BME280;33579;50.058;18.130;2023-05-16T00:06:30;98668.38;;;12.31;100.00
47815;BME280;33579;50.058;18.130;2023-05-16T00:07:33;98663.63;;;12.34;100.00
47815;BME280;33579;50.058;18.130;2023-05-16T00:08:34;98662.13;;;12.32;100.00
47815;BME280;33579;50.058;18.130;2023-05-16T00:09:36;98656.84;;;12.32;100.00
47815;BME280;33579;50.058;18.130;2023-05-16T00:10:37;98664.94;;;12.39;100.00
47815;BME280;33579;50.058;18.130;2023-05-16T00:11:39;98662.00;;;12.42;100.00
47815;BME280;33579;50.058;18.130;2023-05-16T00:12:40;98667.97;;;12.44;100.00
47815;BME280;33579;50.058;18.130;2023-05-16T00:13:42;98668.75;;;12.44;100.00
47815;BME280;33579;50.058;18.130;2023-05-16T00:14:44;98670.28;;;12.47;100.00
47815;BME280;33579;50.058;18.130;2023-05-16T00:15:45;98666.63;;;12.48;100.00
47815;BME280;33579;50.058;18.130;2023-05-16T00:16:47;98663.69;;;12.51;100.00
47815;BME280;33579;50.058;18.130;2023-05-16T00:17:48;98663.06;;;12.57;100.00
47815;BME280;33579;50.058;18.130;2023-05-16T00:18:50;98664.56;;;12.60;100.00
47815;BME280;33579;50.058;18.130;2023-05-16T00:19:52;98670.31;;;12.63;100.00
47815;BME280;33579;50.058;18.130;2023-05-16T00:20:53;98667.38;;;12.67;100.00
47815;BME280;33579;50.058;18.130;2023-05-16T00:21:55;98662.09;;;12.67;100.00
47815;BME280;33579;50.058;18.130;2023-05-16T00:22:56;98663.56;;;12.69;100.00
47815;BME280;33579;50.058;18.130;2023-05-16T00:23:58;98669.38;;;12.73;100.00
47815;BME280;33579;50.058;18.130;2023-05-16T00:24:59;98661.44;;;12.73;100.00
47815;BME280;33579;50.058;18.130;2023-05-16T00:26:01;98664.59;;;12.76;100.00
47815;BME280;33579;50.058;18.130;2023-05-16T00:27:03;98664.75;;;12.67;100.00
47815;BME280;33579;50.058;18.130;2023-05-16T00:28:05;98665.03;;;12.63;100.00
47815;BME280;33579;50.058;18.130;2023-05-16T00:29:06;98670.31;;;12.63;100.00
47815;BME280;33579;50.058;18.130;2023-05-16T00:30:08;98661.88;;;12.51;100.00
47815;BME280;33579;50.058;18.130;2023-05-16T00:31:10;98663.19;;;12.47;100.00
47815;BME280;33579;50.058;18.130;2023-05-16T00:32:11;98658.06;;;12.46;100.00
47815;BME280;33579;50.058;18.130;2023-05-16T00:33:13;98663.66;;;12.43;100.00
47815;BME280;33579;50.058;18.130;2023-05-16T00:34:15;98660.84;;;12.36;100.00
47815;BME280;33579;50.058;18.130;2023-05-16T00:35:16;98660.97;;;12.34;100.00
47815;BME280;33579;50.058;18.130;2023-05-16T00:36:18;98656.56;;;12.35;100.00
47815;BME280;33579;50.058;18.130;2023-05-16T00:37:22;98667.56;;;12.30;100.00
47815;BME280;33579;50.058;18.130;2023-05-16T00:38:24;98671.84;;;12.31;100.00
47815;BME280;33579;50.058;18.130;2023-05-16T00:39:25;98670.34;;;12.29;100.00
47815;BME280;33579;50.058;18.130;2023-05-16T00:40:27;98670.34;;;12.29;100.00
47815;BME280;33579;50.058;18.130;2023-05-16T00:41:29;98673.03;;;12.37;100.00
47815;BME280;33579;50.058;18.130;2023-05-16T00:42:30;98671.25;;;12.46;100.00
47815;BME280;33579;50.058;18.130;2023-05-16T00:43:32;98674.75;;;12.55;100.00
47815;BME280;33579;50.058;18.130;2023-05-16T00:44:34;98673.28;;;12.60;100.00
47815;BME280;33579;50.058;18.130;2023-05-16T00:45:36;98678.75;;;12.67;100.00
47815;BME280;33579;50.058;18.130;2023-05-16T00:46:37;98671.19;;;12.72;100.00
47815;BME280;33579;50.058;18.130;2023-05-16T00:47:39;98670.88;;;12.75;100.00
47815;BME280;33579;50.058;18.130;2023-05-16T00:48:41;98670.38;;;12.80;100.00
47815;BME280;33579;50.058;18.130;2023-05-16T00:49:42;98670.72;;;12.85;100.00
47815;BME280;33579;50.058;18.130;2023-05-16T00:50:44;98673.19;;;12.87;100.00
47815;BME280;33579;50.058;18.130;2023-05-16T00:51:46;98667.94;;;12.87;100.00
47815;BME280;33579;50.058;18.130;2023-05-16T00:52:48;98672.03;;;12.89;100.00
47815;BME280;33579;50.058;18.130;2023-05-16T00:53:50;98663.16;;;12.90;100.00
47815;BME280;33579;50.058;18.130;2023-05-16T00:54:52;98659.53;;;12.91;100.00
47815;BME280;33579;50.058;18.130;2023-05-16T00:55:55;98667.91;;;12.95;100.00
47815;BME280;33579;50.058;18.130;2023-05-16T00:56:57;98663.34;;;12.97;100.00
47815;BME280;33579;50.058;18.130;2023-05-16T00:57:58;98662.81;;;12.93;100.00
47815;BME280;33579;50.058;18.130;2023-05-16T00:59:00;98664.13;;;12.81;100.00
47815;BME280;33579;50.058;18.130;2023-05-16T01:00:04;98666.56;;;12.83;100.00
47815;BME280;33579;50.058;18.130;2023-05-16T01:01:07;98664.13;;;12.81;100.00
47815;BME280;33579;50.058;18.130;2023-05-16T01:02:08;98670.88;;;12.84;100.00
47815;BME280;33579;50.058;18.130;2023-05-16T01:03:10;98673.19;;;12.87;100.00
47815;BME280;33579;50.058;18.130;2023-05-16T01:04:13;98670.56;;;12.87;100.00
47815;BME280;33579;50.058;18.130;2023-05-16T01:05:14;98673.19;;;12.87;100.00
47815;BME280;33579;50.058;18.130;2023-05-16T01:06:16;98676.50;;;12.89;100.00
47815;BME280;33579;50.058;18.130;2023-05-16T01:07:17;98678.16;;;12.90;100.00
47815;BME280;33579;50.058;18.130;2023-05-16T01:08:19;98682.78;;;12.88;100.00
47815;BME280;33579;50.058;18.130;2023-05-16T01:09:21;98681.13;;;12.87;100.00
47815;BME280;33579;50.058;18.130;2023-05-16T01:10:24;98681.94;;;12.87;100.00
47815;BME280;33579;50.058;18.130;2023-05-16T01:11:52;98674.84;;;12.88;100.00
47815;BME280;33579;50.058;18.130;2023-05-16T01:13:27;98672.88;;;12.90;100.00
47815;BME280;33579;50.058;18.130;2023-05-16T01:16:08;98669.91;;;12.85;100.00
47815;BME280;33579;50.058;18.130;2023-05-16T01:17:32;98670.72;;;12.85;100.00
47815;BME280;33579;50.058;18.130;2023-05-16T01:18:55;98673.50;;;12.84;100.00
47815;BME280;33579;50.058;18.130;2023-05-16T01:25:50;98672.94;;;12.55;100.00
47815;BME280;33579;50.058;18.130;2023-05-16T01:26:55;98672.94;;;12.55;100.00
47815;BME280;33579;50.058;18.130;2023-05-16T01:27:57;98679.50;;;12.51;100.00
47815;BME280;33579;50.058;18.130;2023-05-16T01:29:00;98673.41;;;12.50;100.00
47815;BME280;33579;50.058;18.130;2023-05-16T01:30:13;98682.00;;;12.53;100.00
47815;BME280;33579;50.058;18.130;2023-05-16T01:31:16;98680.69;;;12.57;100.00
47815;BME280;33579;50.058;18.130;2023-05-16T01:32:18;98679.03;;;12.56;100.00
47815;BME280;33579;50.058;18.130;2023-05-16T01:33:19;98682.19;;;12.59;100.00
47815;BME280;33579;50.058;18.130;2023-05-16T01:34:21;98683.69;;;12.62;100.00
47815;BME280;33579;50.058;18.130;2023-05-16T01:35:22;98674.94;;;12.61;100.00
47815;BME280;33579;50.058;18.130;2023-05-16T01:36:51;98673.78;;;12.64;100.00
47815;BME280;33579;50.058;18.130;2023-05-16T01:39:10;98673.63;;;12.57;100.00
47815;BME280;33579;50.058;18.130;2023-05-16T01:40:21;98676.41;;;12.56;100.00
47815;BME280;33579;50.058;18.130;2023-05-16T01:42:33;98679.41;;;12.61;100.00
47815;BME280;33579;50.058;18.130;2023-05-16T01:43:42;98676.06;;;12.59;100.00
47815;BME280;33579;50.058;18.130;2023-05-16T01:44:48;98675.25;;;12.58;100.00
47815;BME280;33579;50.058;18.130;2023-05-16T01:45:57;98670.59;;;12.52;100.00
47815;BME280;33579;50.058;18.130;2023-05-16T01:47:08;98673.75;;;12.56;100.00
47815;BME280;33579;50.058;18.130;2023-05-16T01:48:16;98665.31;;;12.52;100.00
47815;BME280;33579;50.058;18.130;2023-05-16T01:50:38;98675.03;;;12.43;100.00
47815;BME280;33579;50.058;18.130;2023-05-16T01:51:40;98668.09;;;12.42;100.00
47815;BME280;33579;50.058;18.130;2023-05-16T01:52:55;98673.22;;;12.44;100.00
47815;BME280;33579;50.058;18.130;2023-05-16T01:54:05;98673.03;;;12.37;100.00
47815;BME280;33579;50.058;18.130;2023-05-16T01:55:13;98676.03;;;12.42;100.00
47815;BME280;33579;50.058;18.130;2023-05-16T01:56:16;98674.22;;;12.43;100.00
47815;BME280;33579;50.058;18.130;2023-05-16T01:57:23;98676.50;;;12.37;100.00
47815;BME280;33579;50.058;18.130;2023-05-16T01:58:31;98673.19;;;12.35;100.00
47815;BME280;33579;50.058;18.130;2023-05-16T01:59:33;98680.13;;;12.36;100.00
47815;BME280;33579;50.058;18.130;2023-05-16T02:00:36;98675.97;;;12.34;100.00
47815;BME280;33579;50.058;18.130;2023-05-16T02:01:37;98677.13;;;12.31;100.00
47815;BME280;33579;50.058;18.130;2023-05-16T02:02:39;98677.28;;;12.30;100.00
47815;BME280;33579;50.058;18.130;2023-05-16T02:03:42;98676.63;;;12.28;100.00
47815;BME280;33579;50.058;18.130;2023-05-16T02:04:44;98679.56;;;12.25;100.00
47815;BME280;33579;50.058;18.130;2023-05-16T02:05:48;98677.75;;;12.25;100.00
47815;BME280;33579;50.058;18.130;2023-05-16T02:06:50;98671.00;;;12.22;100.00
47815;BME280;33579;50.058;18.130;2023-05-16T02:07:52;98675.44;;;12.22;100.00
47815;BME280;33579;50.058;18.130;2023-05-16T02:08:55;98673.47;;;12.24;100.00
47815;BME280;33579;50.058;18.130;2023-05-16T02:09:56;98677.09;;;12.23;100.00
47815;BME280;33579;50.058;18.130;2023-05-16T02:10:58;98671.81;;;12.23;100.00
47815;BME280;33579;50.058;18.130;2023-05-16T02:12:00;98674.13;;;12.26;100.00
47815;BME280;33579;50.058;18.130;2023-05-16T02:13:02;98680.06;;;12.28;100.00
47815;BME280;33579;50.058;18.130;2023-05-16T02:14:04;98671.19;;;12.29;100.00
47815;BME280;33579;50.058;18.130;2023-05-16T02:15:06;98679.09;;;12.29;100.00
47815;BME280;33579;50.058;18.130;2023-05-16T02:16:09;98673.31;;;12.26;100.00
47815;BME280;33579;50.058;18.130;2023-05-16T02:17:11;98672.31;;;12.27;100.00
47815;BME280;33579;50.058;18.130;2023-05-16T02:18:13;98674.31;;;12.25;100.00
47815;BME280;33579;50.058;18.130;2023-05-16T02:19:16;98674.59;;;12.21;100.00
47815;BME280;33579;50.058;18.130;2023-05-16T02:20:18;98673.25;;;12.17;100.00
47815;BME280;33579;50.058;18.130;2023-05-16T02:21:19;98671.75;;;12.15;100.00
47815;BME280;33579;50.058;18.130;2023-05-16T02:22:22;98673.91;;;12.11;100.00
47815;BME280;33579;50.058;18.130;2023-05-16T02:23:23;98669.28;;;12.13;100.00
47815;BME280;33579;50.058;18.130;2023-05-16T02:24:27;98680.66;;;12.14;100.00
47815;BME280;33579;50.058;18.130;2023-05-16T02:25:29;98678.03;;;12.14;100.00
47815;BME280;33579;50.058;18.130;2023-05-16T02:26:30;98677.34;;;12.12;100.00
47815;BME280;33579;50.058;18.130;2023-05-16T02:27:32;98685.13;;;12.13;100.00
47815;BME280;33579;50.058;18.130;2023-05-16T02:28:34;98683.28;;;12.14;100.00
47815;BME280;33579;50.058;18.130;2023-05-16T02:29:35;98684.28;;;12.13;100.00
47815;BME280;33579;50.058;18.130;2023-05-16T02:30:37;98681.63;;;12.13;100.00
47815;BME280;33579;50.058;18.130;2023-05-16T02:31:39;98686.09;;;12.12;100.00
47815;BME280;33579;50.058;18.130;2023-05-16T02:32:41;98680.16;;;12.10;100.00
47815;BME280;33579;50.058;18.130;2023-05-16T02:33:42;98687.75;;;12.13;100.00
47815;BME280;33579;50.058;18.130;2023-05-16T02:34:44;98685.25;;;12.12;100.00
47815;BME280;33579;50.058;18.130;2023-05-16T02:35:45;98677.16;;;12.05;100.00
47815;BME280;33579;50.058;18.130;2023-05-16T02:36:47;98681.38;;;11.98;100.00
47815;BME280;33579;50.058;18.130;2023-05-16T02:37:48;98685.50;;;12.00;100.00
47815;BME280;33579;50.058;18.130;2023-05-16T02:38:50;98686.47;;;11.99;100.00
47815;BME280;33579;50.058;18.130;2023-05-16T02:39:52;98687.31;;;12.00;100.00
47815;BME280;33579;50.058;18.130;2023-05-16T02:40:53;98687.16;;;12.01;100.00
47815;BME280;33579;50.058;18.130;2023-05-16T02:41:55;98683.19;;;11.97;100.00
47815;BME280;33579;50.058;18.130;2023-05-16T02:42:56;98692.75;;;11.98;100.00
47815;BME280;33579;50.058;18.130;2023-05-16T02:43:58;98691.75;;;11.99;100.00
47815;BME280;33579;50.058;18.130;2023-05-16T02:44:59;98694.25;;;12.01;100.00
47815;BME280;33579;50.058;18.130;2023-05-16T02:46:03;98698.69;;;12.00;100.00
47815;BME280;33579;50.058;18.130;2023-05-16T02:47:05;98691.59;;;12.01;100.00
47815;BME280;33579;50.058;18.130;2023-05-16T02:48:07;98702.28;;;11.99;100.00
47815;BME280;33579;50.058;18.130;2023-05-16T02:49:08;98700.50;;;12.00;100.00
47815;BME280;33579;50.058;18.130;2023-05-16T02:50:12;98696.88;;;12.01;100.00
47815;BME280;33579;50.058;18.130;2023-05-16T02:51:13;98699.84;;;11.98;100.00
47815;BME280;33579;50.058;18.130;2023-05-16T02:52:15;98698.13;;;11.88;100.00
47815;BME280;33579;50.058;18.130;2023-05-16T02:53:17;98694.84;;;11.68;100.00
47815;BME280;33579;50.058;18.130;2023-05-16T02:54:18;98691.22;;;11.69;100.00
47815;BME280;33579;50.058;18.130;2023-05-16T02:55:20;98688.63;;;11.51;100.00
47815;BME280;33579;50.058;18.130;2023-05-16T02:56:35;98696.75;;;11.39;100.00
47815;BME280;33579;50.058;18.130;2023-05-16T02:57:36;98693.91;;;11.33;100.00
47815;BME280;33579;50.058;18.130;2023-05-16T02:58:38;98694.88;;;11.32;100.00
47815;BME280;33579;50.058;18.130;2023-05-16T02:59:40;98694.22;;;11.30;100.00
47815;BME280;33579;50.058;18.130;2023-05-16T03:00:41;98701.34;;;11.19;100.00
47815;BME280;33579;50.058;18.130;2023-05-16T03:01:43;98692.75;;;11.17;100.00
47815;BME280;33579;50.058;18.130;2023-05-16T03:02:44;98702.38;;;11.27;100.00
47815;BME280;33579;50.058;18.130;2023-05-16T03:03:46;98706.75;;;11.36;100.00
47815;BME280;33579;50.058;18.130;2023-05-16T03:04:48;98706.97;;;11.24;100.00
47815;BME280;33579;50.058;18.130;2023-05-16T03:05:49;98709.91;;;11.21;100.00
47815;BME280;33579;50.058;18.130;2023-05-16T03:06:51;98706.63;;;11.19;100.00
47815;BME280;33579;50.058;18.130;2023-05-16T03:07:53;98708.94;;;11.22;100.00
47815;BME280;33579;50.058;18.130;2023-05-16T03:08:55;98704.34;;;11.24;100.00
47815;BME280;33579;50.058;18.130;2023-05-16T03:09:56;98708.84;;;11.32;100.00
47815;BME280;33579;50.058;18.130;2023-05-16T03:10:58;98713.91;;;11.44;100.00
47815;BME280;33579;50.058;18.130;2023-05-16T03:11:59;98701.63;;;11.52;100.00
47815;BME280;33579;50.058;18.130;2023-05-16T03:13:01;98701.34;;;11.56;100.00
47815;BME280;33579;50.058;18.130;2023-05-16T03:14:02;98698.59;;;11.65;100.00
47815;BME280;33579;50.058;18.130;2023-05-16T03:15:05;98698.28;;;11.69;100.00
47815;BME280;33579;50.058;18.130;2023-05-16T03:16:06;98701.31;;;11.74;100.00
47815;BME280;33579;50.058;18.130;2023-05-16T03:17:09;98700.03;;;11.78;100.00
47815;BME280;33579;50.058;18.130;2023-05-16T03:18:11;98697.44;;;11.86;100.00
47815;BME280;33579;50.058;18.130;2023-05-16T03:19:12;98695.03;;;11.93;100.00
47815;BME280;33579;50.058;18.130;2023-05-16T03:20:14;98700.13;;;11.94;100.00
47815;BME280;33579;50.058;18.130;2023-05-16T03:21:16;98692.06;;;11.96;100.00
47815;BME280;33579;50.058;18.130;2023-05-16T03:22:18;98696.16;;;11.90;100.00
47815;BME280;33579;50.058;18.130;2023-05-16T03:23:20;98695.47;;;11.88;100.00
47815;BME280;33579;50.058;18.130;2023-05-16T03:24:21;98694.63;;;11.88;100.00
47815;BME280;33579;50.058;18.130;2023-05-16T03:25:23;98698.25;;;11.87;100.00
47815;BME280;33579;50.058;18.130;2023-05-16T03:26:25;98706.09;;;11.78;100.00
47815;BME280;33579;50.058;18.130;2023-05-16T03:27:26;98700.81;;;11.78;100.00
47815;BME280;33579;50.058;18.130;2023-05-16T03:28:28;98702.66;;;11.78;100.00
47815;BME280;33579;50.058;18.130;2023-05-16T03:29:30;98701.66;;;11.79;100.00
47815;BME280;33579;50.058;18.130;2023-05-16T03:30:31;98703.78;;;11.75;100.00
47815;BME280;33579;50.058;18.130;2023-05-16T03:31:33;98702.50;;;11.79;100.00
47815;BME280;33579;50.058;18.130;2023-05-16T03:32:36;98709.25;;;11.82;100.00
47815;BME280;33579;50.058;18.130;2023-05-16T03:33:38;98704.31;;;11.79;100.00
47815;BME280;33579;50.058;18.130;2023-05-16T03:34:40;98712.34;;;11.77;100.00
47815;BME280;33579;50.058;18.130;2023-05-16T03:35:42;98712.59;;;11.66;100.00
47815;BME280;33579;50.058;18.130;2023-05-16T03:36:44;98709.16;;;11.65;100.00
47815;BME280;33579;50.058;18.130;2023-05-16T03:37:45;98715.94;;;11.68;100.00
47815;BME280;33579;50.058;18.130;2023-05-16T03:38:47;98711.78;;;11.65;100.00
47815;BME280;33579;50.058;18.130;2023-05-16T03:39:48;98710.91;;;11.57;100.00
47815;BME280;33579;50.058;18.130;2023-05-16T03:40:50;98719.38;;;11.50;100.00
47815;BME280;33579;50.058;18.130;2023-05-16T03:41:51;98714.88;;;11.43;100.00
47815;BME280;33579;50.058;18.130;2023-05-16T03:42:53;98721.66;;;11.45;100.00
47815;BME280;33579;50.058;18.130;2023-05-16T03:43:54;98720.38;;;11.49;100.00
47815;BME280;33579;50.058;18.130;2023-05-16T03:44:56;98716.09;;;11.48;100.00
47815;BME280;33579;50.058;18.130;2023-05-16T03:46:00;98713.00;;;11.53;100.00
47815;BME280;33579;50.058;18.130;2023-05-16T03:47:02;98709.75;;;11.59;100.00
47815;BME280;33579;50.058;18.130;2023-05-16T03:48:03;98709.97;;;11.66;100.00
47815;BME280;33579;50.058;18.130;2023-05-16T03:49:05;98713.13;;;11.70;100.00
47815;BME280;33579;50.058;18.130;2023-05-16T03:50:07;98718.78;;;11.75;100.00
47815;BME280;33579;50.058;18.130;2023-05-16T03:51:10;98715.69;;;11.79;100.00
47815;BME280;33579;50.058;18.130;2023-05-16T03:52:11;98707.81;;;11.88;100.00
47815;BME280;33579;50.058;18.130;2023-05-16T03:53:13;98719.19;;;11.88;100.00
47815;BME280;33579;50.058;18.130;2023-05-16T03:54:15;98720.00;;;11.89;100.00
47815;BME280;33579;50.058;18.130;2023-05-16T03:55:16;98720.47;;;11.84;100.00
47815;BME280;33579;50.058;18.130;2023-05-16T03:56:18;98727.72;;;11.82;100.00
47815;BME280;33579;50.058;18.130;2023-05-16T03:57:20;98723.34;;;11.73;100.00
47815;BME280;33579;50.058;18.130;2023-05-16T03:58:21;98722.84;;;11.69;100.00
47815;BME280;33579;50.058;18.130;2023-05-16T03:59:23;98730.13;;;11.75;100.00
47815;BME280;33579;50.058;18.130;2023-05-16T04:00:24;98722.91;;;11.77;100.00
47815;BME280;33579;50.058;18.130;2023-05-16T04:01:26;98726.97;;;11.72;100.00
47815;BME280;33579;50.058;18.130;2023-05-16T04:02:28;98726.50;;;11.76;100.00
47815;BME280;33579;50.058;18.130;2023-05-16T04:03:29;98720.78;;;11.81;100.00
47815;BME280;33579;50.058;18.130;2023-05-16T04:04:31;98727.78;;;11.90;100.00
47815;BME280;33579;50.058;18.130;2023-05-16T04:05:34;98725.22;;;11.99;100.00
47815;BME280;33579;50.058;18.130;2023-05-16T04:06:35;98725.28;;;12.07;100.00
47815;BME280;33579;50.058;18.130;2023-05-16T04:07:37;98732.41;;;12.15;100.00
47815;BME280;33579;50.058;18.130;2023-05-16T04:08:38;98730.28;;;12.18;100.00
47815;BME280;33579;50.058;18.130;2023-05-16T04:09:40;98734.38;;;12.13;100.00
47815;BME280;33579;50.058;18.130;2023-05-16T04:10:42;98734.16;;;12.06;100.00
47815;BME280;33579;50.058;18.130;2023-05-16T04:11:43;98735.81;;;12.07;100.00
47815;BME280;33579;50.058;18.130;2023-05-16T04:12:45;98736.00;;;12.05;100.00
47815;BME280;33579;50.058;18.130;2023-05-16T04:13:46;98744.41;;;12.09;100.00
47815;BME280;33579;50.058;18.130;2023-05-16T04:14:48;98740.69;;;12.20;100.00
47815;BME280;33579;50.058;18.130;2023-05-16T04:15:49;98738.72;;;12.22;100.00
47815;BME280;33579;50.058;18.130;2023-05-16T04:16:51;98735.09;;;12.23;100.00
47815;BME280;33579;50.058;18.130;2023-05-16T04:17:53;98739.78;;;12.29;100.00
47815;BME280;33579;50.058;18.130;2023-05-16T04:18:55;98733.66;;;12.29;100.00
47815;BME280;33579;50.058;18.130;2023-05-16T04:19:57;98729.44;;;12.44;100.00
47815;BME280;33579;50.058;18.130;2023-05-16T04:20:58;98736.41;;;12.54;100.00
47815;BME280;33579;50.058;18.130;2023-05-16T04:22:00;98737.59;;;12.59;100.00
47815;BME280;33579;50.058;18.130;2023-05-16T04:23:01;98742.41;;;12.64;100.00
47815;BME280;33579;50.058;18.130;2023-05-16T04:24:03;98740.09;;;12.61;100.00
47815;BME280;33579;50.058;18.130;2023-05-16T04:25:05;98743.66;;;12.51;100.00
47815;BME280;33579;50.058;18.130;2023-05-16T04:26:07;98750.28;;;12.56;100.00
47815;BME280;33579;50.058;18.130;2023-05-16T04:27:08;98748.00;;;12.61;100.00
47815;BME280;33579;50.058;18.130;2023-05-16T04:28:10;98745.56;;;12.68;100.00
47815;BME280;33579;50.058;18.130;2023-05-16T04:29:11;98750.66;;;12.61;100.00
47815;BME280;33579;50.058;18.130;2023-05-16T04:30:13;98753.28;;;12.61;100.00
47815;BME280;33579;50.058;18.130;2023-05-16T04:31:15;98749.94;;;12.59;100.00
47815;BME280;33579;50.058;18.130;2023-05-16T04:32:16;98756.94;;;12.68;100.00
47815;BME280;33579;50.058;18.130;2023-05-16T04:33:18;98760.63;;;12.84;100.00
47815;BME280;33579;50.058;18.130;2023-05-16T04:34:19;98755.06;;;12.95;100.00
47815;BME280;33579;50.058;18.130;2023-05-16T04:35:21;98758.06;;;13.00;100.00
47815;BME280;33579;50.058;18.130;2023-05-16T04:36:23;98765.16;;;13.08;100.00
47815;BME280;33579;50.058;18.130;2023-05-16T04:37:24;98768.16;;;13.13;100.00
47815;BME280;33579;50.058;18.130;2023-05-16T04:38:26;98764.22;;;13.17;100.00
47815;BME280;33579;50.058;18.130;2023-05-16T04:39:27;98765.50;;;13.13;100.00
47815;BME280;33579;50.058;18.130;2023-05-16T04:40:29;98777.72;;;13.14;100.00
47815;BME280;33579;50.058;18.130;2023-05-16T04:41:30;98775.44;;;13.19;100.00
47815;BME280;33579;50.058;18.130;2023-05-16T04:42:32;98772.47;;;13.23;100.00
47815;BME280;33579;50.058;18.130;2023-05-16T04:43:33;98784.56;;;13.33;100.00
47815;BME280;33579;50.058;18.130;2023-05-16T04:44:35;98767.22;;;13.39;100.00
47815;BME280;33579;50.058;18.130;2023-05-16T04:45:36;98774.81;;;13.34;100.00
47815;BME280;33579;50.058;18.130;2023-05-16T04:46:38;98773.00;;;13.34;100.00
47815;BME280;33579;50.058;18.130;2023-05-16T04:47:40;98768.25;;;13.46;100.00
47815;BME280;33579;50.058;18.130;2023-05-16T04:48:41;98771.06;;;13.45;100.00
47815;BME280;33579;50.058;18.130;2023-05-16T04:49:43;98769.41;;;13.44;100.00
47815;BME280;33579;50.058;18.130;2023-05-16T04:50:44;98764.13;;;13.44;100.00
47815;BME280;33579;50.058;18.130;2023-05-16T04:51:49;98776.72;;;13.58;100.00
47815;BME280;33579;50.058;18.130;2023-05-16T04:52:50;98781.50;;;13.71;100.00
47815;BME280;33579;50.058;18.130;2023-05-16T04:53:52;98781.50;;;13.80;100.00
47815;BME280;33579;50.058;18.130;2023-05-16T04:54:54;98786.16;;;13.77;100.00
47815;BME280;33579;50.058;18.130;2023-05-16T04:55:56;98785.16;;;13.79;100.00
47815;BME280;33579;50.058;18.130;2023-05-16T04:56:58;98790.09;;;13.73;100.00
47815;BME280;33579;50.058;18.130;2023-05-16T04:57:59;98789.75;;;13.85;100.00
47815;BME280;33579;50.058;18.130;2023-05-16T04:59:01;98783.34;;;13.96;100.00
47815;BME280;33579;50.058;18.130;2023-05-16T05:00:03;98787.78;;;13.79;100.00
47815;BME280;33579;50.058;18.130;2023-05-16T05:01:04;98792.25;;;13.78;100.00
47815;BME280;33579;50.058;18.130;2023-05-16T05:02:06;98784.66;;;13.83;100.00
47815;BME280;33579;50.058;18.130;2023-05-16T05:03:08;98790.28;;;13.97;100.00
47815;BME280;33579;50.058;18.130;2023-05-16T05:04:10;98788.28;;;13.90;100.00
47815;BME280;33579;50.058;18.130;2023-05-16T05:05:11;98788.94;;;14.01;100.00
47815;BME280;33579;50.058;18.130;2023-05-16T05:06:13;98793.09;;;14.03;100.00
47815;BME280;33579;50.058;18.130;2023-05-16T05:07:15;98789.25;;;14.06;100.00
47815;BME280;33579;50.058;18.130;2023-05-16T05:08:17;98793.22;;;14.18;100.00
47815;BME280;33579;50.058;18.130;2023-05-16T05:09:19;98790.56;;;14.18;100.00
47815;BME280;33579;50.058;18.130;2023-05-16T05:10:20;98795.22;;;14.16;100.00
47815;BME280;33579;50.058;18.130;2023-05-16T05:11:22;98786.94;;;14.28;100.00
47815;BME280;33579;50.058;18.130;2023-05-16T05:12:23;98783.94;;;14.39;100.00
47815;BME280;33579;50.058;18.130;2023-05-16T05:13:25;98785.22;;;14.52;100.00
47815;BME280;33579;50.058;18.130;2023-05-16T05:14:27;98785.38;;;14.67;100.00
47815;BME280;33579;50.058;18.130;2023-05-16T05:15:29;98790.97;;;14.80;100.00
47815;BME280;33579;50.058;18.130;2023-05-16T05:16:31;98788.47;;;14.87;100.00
47815;BME280;33579;50.058;18.130;2023-05-16T05:17:32;98787.59;;;14.95;100.00
47815;BME280;33579;50.058;18.130;2023-05-16T05:18:34;98776.84;;;14.96;100.00
47815;BME280;33579;50.058;18.130;2023-05-16T05:19:36;98782.41;;;15.10;100.00
47815;BME280;33579;50.058;18.130;2023-05-16T05:20:38;98790.13;;;15.20;100.00
47815;BME280;33579;50.058;18.130;2023-05-16T05:21:39;98789.75;;;15.31;100.00
47815;BME280;33579;50.058;18.130;2023-05-16T05:22:41;98784.00;;;15.51;100.00
47815;BME280;33579;50.058;18.130;2023-05-16T05:23:42;98782.34;;;15.73;100.00
47815;BME280;33579;50.058;18.130;2023-05-16T05:24:44;98781.44;;;15.81;100.00
47815;BME280;33579;50.058;18.130;2023-05-16T05:25:46;98784.63;;;15.76;100.00
47815;BME280;33579;50.058;18.130;2023-05-16T05:26:48;98790.06;;;15.83;100.00
47815;BME280;33579;50.058;18.130;2023-05-16T05:27:49;98782.72;;;15.93;100.00
47815;BME280;33579;50.058;18.130;2023-05-16T05:28:51;98777.16;;;16.03;100.00
47815;BME280;33579;50.058;18.130;2023-05-16T05:30:05;98772.63;;;16.12;100.00
47815;BME280;33579;50.058;18.130;2023-05-16T05:31:08;98778.28;;;16.24;100.00
47815;BME280;33579;50.058;18.130;2023-05-16T05:32:09;98773.47;;;16.27;100.00
47815;BME280;33579;50.058;18.130;2023-05-16T05:33:15;98779.88;;;16.33;100.00
47815;BME280;33579;50.058;18.130;2023-05-16T05:34:17;98770.06;;;16.34;100.00